Jevne, Minnesota
Current Conditions -  °F | °C
As of 7:08 PM on Monday 26 Jan 2015 (Local Time) from KHZX Reporting Station
Overcast Overcast  
Wind Chill: 23°   Ceiling: 2200
Heat Index: 32°   Visibility: 10mi
Dew Point: 28°   Wind: 13mph
Humidity: 87%   Direction: 330°NNW
Pressure: 29.89"   Gusts: 18mph
Location:  46.7232°N, 93.3159°W
Report Text: KHZX 270108Z AUTO 33011G16KT 10SM OVC022 00/M02 A2989 RMK AO2
Loading
Personal Weather Stations






























Interactive Weather Map New forecast layout! Learn more

10-Day Weather Forecast

Advertisements
Track Severe Weather on mobile